Time;durP1;ratioP1;P1;durP2;ratioP2;P2;SDS_P1;SDS_P2;PMS_P1;PMS_P2;Temp;Humidity;BMP_temperature;BMP_pressure;BME280_temperature;BME280_humidity;BME280_pressure;Samples;Min_cycle;Max_cycle;Signal;HPM_P1;HPM_P2
2022/07/20 00:01:18;;;;;;;17.70;6.28;;;;;;;24.35;41.06;101034.94;5055357;28;20025;-64
2022/07/20 00:03:45;;;;;;;17.92;6.43;;;;;;;24.31;40.34;101030.63;5055471;28;20123;-64
2022/07/20 00:06:11;;;;;;;19.27;6.47;;;;;;;24.39;42.49;101030.22;5055517;28;20029;-64
2022/07/20 00:11:21;;;;;;;19.58;6.65;;;;;;;24.32;39.12;101026.13;5053785;28;20047;-64
2022/07/20 00:13:52;;;;;;;19.63;6.40;;;;;;;24.41;39.51;101033.75;5055500;28;20021;-64
2022/07/20 00:16:19;;;;;;;18.67;6.70;;;;;;;24.35;40.23;101029.53;5055371;28;20074;-64
2022/07/20 00:18:44;;;;;;;18.42;6.65;;;;;;;24.40;40.24;101025.72;5055213;28;20040;-64
2022/07/20 00:21:09;;;;;;;18.27;6.50;;;;;;;24.33;39.77;101022.44;5055465;28;20408;-64
2022/07/20 00:23:35;;;;;;;19.63;6.60;;;;;;;24.28;39.72;101025.38;5055074;28;20028;-64
2022/07/20 00:26:00;;;;;;;17.90;6.50;;;;;;;24.31;40.85;101027.94;5054977;28;20025;-64
2022/07/20 00:28:25;;;;;;;19.08;6.50;;;;;;;24.31;41.15;101022.53;5054964;28;20155;-64
2022/07/20 00:30:50;;;;;;;19.70;6.45;;;;;;;24.21;40.96;101021.25;5055210;28;20111;-64
2022/07/20 00:33:16;;;;;;;18.55;6.40;;;;;;;24.16;42.92;101018.78;5055257;28;20372;-64
2022/07/20 00:35:41;;;;;;;19.15;6.53;;;;;;;24.20;40.54;101024.88;5054865;28;20029;-64
2022/07/20 00:38:06;;;;;;;18.90;6.40;;;;;;;23.99;46.07;101037.63;5054905;28;20025;-64
2022/07/20 00:40:32;;;;;;;20.30;6.78;;;;;;;23.76;40.00;101079.19;5054153;28;20040;-64
2022/07/20 00:42:57;;;;;;;20.65;6.68;;;;;;;23.56;39.97;101086.41;5054748;28;20096;-64
2022/07/20 00:45:22;;;;;;;20.38;6.57;;;;;;;23.65;39.82;101032.00;5055125;28;20025;-64
2022/07/20 00:47:48;;;;;;;21.77;7.13;;;;;;;23.74;41.63;101038.78;5054373;28;20041;-64
2022/07/20 00:50:14;;;;;;;19.45;6.57;;;;;;;23.83;40.14;101040.16;5054983;28;20434;-64
2022/07/20 00:52:40;;;;;;;19.20;6.47;;;;;;;23.74;42.99;101046.03;5054830;28;20025;-64
2022/07/20 00:55:07;;;;;;;21.33;7.10;;;;;;;23.53;40.92;101073.03;5054655;28;20021;-64
2022/07/20 00:57:32;;;;;;;21.23;7.25;;;;;;;23.30;41.83;101060.63;5054571;28;20086;-64
2022/07/20 00:59:57;;;;;;;19.58;6.88;;;;;;;23.35;42.30;101060.41;5054242;28;20426;-64
2022/07/20 01:02:23;;;;;;;20.00;6.95;;;;;;;23.36;40.54;101068.44;5054358;28;20017;-64
2022/07/20 01:04:48;;;;;;;22.63;7.57;;;;;;;23.22;42.28;101078.97;5054478;28;20031;-64
2022/07/20 01:07:14;;;;;;;21.77;7.05;;;;;;;23.22;42.04;101052.88;5054234;28;20361;-64
2022/07/20 01:09:39;;;;;;;20.30;6.65;;;;;;;23.22;42.15;101063.66;5054237;28;20025;-64
2022/07/20 01:12:05;;;;;;;20.00;7.20;;;;;;;23.23;43.79;101051.94;5050133;28;20388;-64
2022/07/20 01:14:30;;;;;;;21.35;6.85;;;;;;;23.17;44.90;101057.63;5054308;28;20029;-64
2022/07/20 01:16:55;;;;;;;18.73;6.55;;;;;;;23.03;46.13;101068.09;5054022;28;20036;-64
2022/07/20 01:19:21;;;;;;;20.15;6.65;;;;;;;23.04;45.43;101056.34;5054222;28;20028;-64
2022/07/20 01:21:46;;;;;;;20.83;7.00;;;;;;;23.03;45.58;101057.31;5053993;28;20029;-64
2022/07/20 01:24:13;;;;;;;19.75;7.10;;;;;;;22.93;46.19;101054.16;5053900;28;20100;-64
2022/07/20 01:26:43;;;;;;;22.30;6.80;;;;;;;22.94;45.59;101050.50;5053945;28;20029;-64
2022/07/20 01:29:10;;;;;;;20.45;6.57;;;;;;;22.81;45.13;101042.94;5050068;28;20037;-64
2022/07/20 01:31:36;;;;;;;19.95;6.50;;;;;;;22.78;45.76;101053.00;5049655;28;20032;-64
2022/07/20 01:34:01;;;;;;;22.10;6.85;;;;;;;22.69;45.39;101048.88;5054047;28;20028;-64
2022/07/20 01:36:27;;;;;;;20.42;6.95;;;;;;;22.56;47.56;101040.44;5053700;28;20654;-64
2022/07/20 01:38:52;;;;;;;20.92;7.03;;;;;;;22.57;44.83;101039.53;5053953;28;20104;-64
2022/07/20 01:41:18;;;;;;;18.08;7.10;;;;;;;22.46;47.08;101041.78;5053919;28;20048;-64
2022/07/20 01:43:43;;;;;;;22.20;6.95;;;;;;;22.38;46.82;101036.75;5053537;28;20048;-64
2022/07/20 01:46:08;;;;;;;18.80;6.90;;;;;;;22.25;51.81;101044.41;5053927;28;20127;-64
2022/07/20 01:48:34;;;;;;;21.80;7.00;;;;;;;22.24;49.70;101042.66;5052097;28;20132;-64
2022/07/20 01:50:59;;;;;;;20.73;7.35;;;;;;;22.35;48.99;101044.06;5052607;28;20123;-64
2022/07/20 01:53:24;;;;;;;18.42;7.00;;;;;;;22.22;51.83;101049.03;5053568;28;20060;-64
2022/07/20 01:55:53;;;;;;;19.63;7.38;;;;;;;22.08;52.09;101058.56;5053277;28;20032;-64
2022/07/20 01:58:19;;;;;;;18.60;6.93;;;;;;;22.06;51.50;101054.16;5053466;28;20104;-64
2022/07/20 02:00:45;;;;;;;21.63;7.43;;;;;;;21.85;53.52;101062.16;5053498;28;20104;-64
2022/07/20 02:03:10;;;;;;;18.60;6.90;;;;;;;21.80;49.78;101063.28;5053160;28;20040;-64
2022/07/20 02:05:36;;;;;;;22.77;7.40;;;;;;;21.93;45.50;101078.88;5053440;28;20108;-64
2022/07/20 02:08:01;;;;;;;19.60;7.13;;;;;;;22.17;45.40;101089.59;5053228;28;20028;-64
2022/07/20 02:10:27;;;;;;;20.25;7.50;;;;;;;22.08;45.30;101104.31;5052851;28;20033;-64
2022/07/20 02:12:52;;;;;;;21.25;7.38;;;;;;;22.38;43.04;101109.44;5053204;28;20036;-64
2022/07/20 02:18:07;;;;;;;23.30;9.55;;;;;;;22.67;44.71;101109.16;5053258;28;20036;-64
2022/07/20 02:20:33;;;;;;;24.85;11.55;;;;;;;22.62;47.34;101104.84;5052984;28;20137;-64
2022/07/20 02:22:58;;;;;;;23.92;11.30;;;;;;;22.56;47.76;101099.72;5052880;28;20092;-64
2022/07/20 02:25:23;;;;;;;26.33;12.75;;;;;;;22.50;49.38;101094.59;5052839;28;20048;-64
2022/07/20 02:27:49;;;;;;;29.48;14.57;;;;;;;22.43;51.02;101101.16;5051464;28;20033;-64
2022/07/20 02:30:15;;;;;;;29.15;16.33;;;;;;;22.37;53.27;101101.44;5052773;28;20454;-64
2022/07/20 02:32:40;;;;;;;27.35;16.13;;;;;;;22.31;54.24;101096.25;5052982;28;20539;-64
2022/07/20 02:35:06;;;;;;;27.75;16.55;;;;;;;22.26;55.04;101094.59;5052659;28;20120;-64
2022/07/20 02:37:31;;;;;;;31.17;17.35;;;;;;;22.17;56.36;101100.38;5052889;28;20084;-64
2022/07/20 02:39:56;;;;;;;29.38;17.75;;;;;;;22.15;57.01;101095.97;5052876;28;20024;-64
2022/07/20 02:42:22;;;;;;;28.98;17.88;;;;;;;22.05;58.88;101111.63;5052760;28;20107;-64
2022/07/20 02:44:47;;;;;;;31.58;18.73;;;;;;;21.95;60.28;101111.13;5052797;28;20018;-64
2022/07/20 02:47:12;;;;;;;29.20;17.77;;;;;;;21.84;61.68;101108.81;5052779;28;20025;-64
2022/07/20 02:49:37;;;;;;;30.63;18.95;;;;;;;21.83;62.44;101108.88;5052184;28;20045;-64
2022/07/20 02:52:03;;;;;;;33.78;19.58;;;;;;;21.75;63.20;101115.44;5052590;28;20476;-64
2022/07/20 02:54:28;;;;;;;31.33;18.95;;;;;;;21.73;63.35;101111.94;5052674;28;20029;-64
2022/07/20 02:56:53;;;;;;;31.20;18.75;;;;;;;21.64;63.50;101106.03;5052243;28;20047;-64
2022/07/20 02:59:19;;;;;;;29.75;18.65;;;;;;;21.57;63.78;101103.56;5052509;28;20082;-64
2022/07/20 03:01:44;;;;;;;30.75;19.05;;;;;;;21.48;64.67;101101.19;5052231;28;20057;-64
2022/07/20 03:04:09;;;;;;;29.88;19.10;;;;;;;21.39;65.94;101118.56;5052201;28;20032;-64
2022/07/20 03:06:35;;;;;;;33.35;20.63;;;;;;;21.32;67.29;101122.41;5052755;28;20100;-64
2022/07/20 03:09:00;;;;;;;31.60;20.48;;;;;;;21.31;67.97;101114.38;5052052;28;20043;-64
2022/07/20 03:11:25;;;;;;;30.67;19.92;;;;;;;21.20;69.99;101118.34;5052410;28;20091;-64
2022/07/20 03:13:51;;;;;;;33.75;22.02;;;;;;;21.20;71.04;101112.97;5052196;28;20083;-64
2022/07/20 03:16:16;;;;;;;33.13;22.48;;;;;;;21.19;71.66;101100.44;5052326;28;20025;-64
2022/07/20 03:18:41;;;;;;;34.00;22.92;;;;;;;21.21;72.54;101106.63;5052529;28;20180;-64
2022/07/20 03:21:07;;;;;;;34.25;24.13;;;;;;;21.16;75.88;101105.94;5052128;28;20415;-64
2022/07/20 03:23:32;;;;;;;36.72;25.23;;;;;;;21.11;77.01;101113.28;5052154;28;20476;-64
2022/07/20 03:25:57;;;;;;;36.67;26.10;;;;;;;21.01;78.46;101119.91;5052285;28;20506;-64
2022/07/20 03:28:23;;;;;;;37.92;26.40;;;;;;;21.01;80.02;101126.19;5052231;28;20029;-64
2022/07/20 03:30:48;;;;;;;35.65;26.27;;;;;;;20.92;81.47;101145.28;5052295;28;20025;-64
2022/07/20 03:33:13;;;;;;;36.08;26.50;;;;;;;20.87;83.70;101147.25;5052268;28;20570;-64
2022/07/20 03:35:39;;;;;;;38.08;26.88;;;;;;;20.83;84.43;101150.97;5052116;28;20021;-64
2022/07/20 03:38:04;;;;;;;38.88;27.08;;;;;;;20.82;85.21;101152.78;5052009;28;20090;-64
2022/07/20 03:40:30;;;;;;;40.30;28.10;;;;;;;20.78;87.17;101156.50;5052374;28;20029;-64
2022/07/20 03:42:55;;;;;;;39.03;29.35;;;;;;;20.79;89.20;101165.44;5051902;28;20020;-64
2022/07/20 03:45:20;;;;;;;37.95;28.10;;;;;;;20.81;89.22;101169.84;5052157;28;20435;-64
2022/07/20 03:47:46;;;;;;;39.65;27.98;;;;;;;20.86;89.23;101172.38;5051860;28;20032;-64
2022/07/20 03:50:11;;;;;;;40.80;29.63;;;;;;;20.92;88.90;101182.03;5051928;28;20025;-64
2022/07/20 03:52:36;;;;;;;42.45;29.20;;;;;;;20.95;88.80;101182.78;5050674;28;20068;-64
2022/07/20 03:55:02;;;;;;;38.33;28.52;;;;;;;20.96;89.05;101184.56;5052129;28;20029;-64
2022/07/20 03:57:27;;;;;;;40.35;28.80;;;;;;;20.93;89.61;101197.22;5051789;28;20475;-64
2022/07/20 03:59:53;;;;;;;38.88;28.70;;;;;;;20.92;90.08;101203.53;5051825;28;20074;-64
2022/07/20 04:02:18;;;;;;;40.80;30.15;;;;;;;20.93;90.74;101206.16;5051959;28;20384;-64
2022/07/20 04:04:43;;;;;;;39.60;30.52;;;;;;;20.95;90.82;101209.66;5051870;28;20033;-64
2022/07/20 04:07:09;;;;;;;40.03;30.10;;;;;;;20.93;90.85;101216.91;5052037;28;20020;-64
2022/07/20 04:09:46;;;;;;;42.63;30.65;;;;;;;20.94;91.15;101212.41;5051830;28;20459;-64
2022/07/20 04:12:17;;;;;;;39.95;30.33;;;;;;;20.99;90.56;101218.50;5048331;28;20033;-64
2022/07/20 04:14:45;;;;;;;38.05;29.63;;;;;;;20.97;90.80;101214.97;5052538;28;20107;-64
2022/07/20 04:17:10;;;;;;;40.00;30.35;;;;;;;21.03;90.40;101214.81;5055657;28;20032;-64
2022/07/20 04:19:36;;;;;;;38.92;29.92;;;;;;;21.05;89.82;101211.09;5055191;28;20482;-64
2022/07/20 04:22:02;;;;;;;39.40;30.25;;;;;;;21.04;nan;101225.50;5055251;28;20028;-64
2022/07/20 04:24:27;;;;;;;39.25;29.88;;;;;;;21.08;90.06;101228.94;5055207;28;20483;-64
2022/07/20 04:26:53;;;;;;;39.83;30.08;;;;;;;21.10;89.97;101219.03;5054976;28;20108;-64
2022/07/20 04:29:19;;;;;;;39.42;30.30;;;;;;;21.17;89.49;101235.81;5054965;28;20495;-64
2022/07/20 04:31:44;;;;;;;40.85;29.77;;;;;;;21.19;89.10;101231.28;5054876;28;20032;-64
2022/07/20 04:34:10;;;;;;;38.03;29.13;;;;;;;21.25;88.13;101228.38;5054889;28;20017;-64
2022/07/20 04:36:35;;;;;;;37.10;28.98;;;;;;;21.30;87.95;101241.66;5055183;28;20025;-64
2022/07/20 04:39:01;;;;;;;40.08;29.05;;;;;;;21.35;86.73;101237.88;5055105;28;20028;-64
2022/07/20 04:41:26;;;;;;;38.50;28.70;;;;;;;21.37;87.26;101241.38;5054614;28;20096;-64
2022/07/20 04:43:51;;;;;;;37.80;27.77;;;;;;;21.42;87.06;101246.59;5054894;28;20036;-64
2022/07/20 04:46:17;;;;;;;36.05;26.52;;;;;;;21.44;86.76;101250.13;5054870;28;20031;-64
2022/07/20 04:48:42;;;;;;;37.45;27.65;;;;;;;21.51;86.11;101262.47;5054336;28;20059;-64
2022/07/20 04:51:07;;;;;;;37.30;26.85;;;;;;;21.54;85.27;101265.06;5050667;28;20053;-64
2022/07/20 04:53:33;;;;;;;37.40;27.15;;;;;;;21.52;85.61;101261.56;5054816;28;20036;-64
2022/07/20 04:55:58;;;;;;;36.05;26.90;;;;;;;21.53;85.05;101271.34;5054476;28;20021;-64
2022/07/20 04:58:24;;;;;;;35.85;25.52;;;;;;;21.52;84.82;101269.63;5054889;28;20087;-64
2022/07/20 05:00:49;;;;;;;35.90;25.75;;;;;;;21.51;85.30;101262.47;5054510;28;20021;-64
2022/07/20 05:03:15;;;;;;;34.47;25.70;;;;;;;21.52;84.97;101264.25;5054510;28;20017;-64
2022/07/20 05:05:40;;;;;;;34.90;24.95;;;;;;;21.49;84.66;101264.28;5054343;28;20040;-64
2022/07/20 05:08:05;;;;;;;33.88;25.48;;;;;;;21.49;84.14;101258.91;5054463;28;20043;-63
2022/07/20 05:10:31;;;;;;;35.80;25.17;;;;;;;21.51;83.78;101257.09;5054368;28;20025;-63
2022/07/20 05:12:56;;;;;;;35.45;24.80;;;;;;;21.54;83.38;101256.97;5054023;28;20472;-64
2022/07/20 05:15:23;;;;;;;32.92;24.23;;;;;;;21.55;83.55;101258.75;5054057;28;20028;-64
2022/07/20 05:17:50;;;;;;;32.55;24.02;;;;;;;21.55;82.81;101256.06;5054483;28;20080;-65
2022/07/20 05:20:15;;;;;;;34.72;24.08;;;;;;;21.57;83.30;101264.94;5050526;28;20010;-66
2022/07/20 05:22:41;;;;;;;32.15;23.98;;;;;;;21.58;83.62;101264.03;5052649;28;20029;-65
2022/07/20 05:25:07;;;;;;;33.22;23.15;;;;;;;21.62;83.33;101269.28;5051969;28;20029;-65
2022/07/20 05:27:32;;;;;;;32.95;23.27;;;;;;;21.66;82.24;101281.69;5051467;28;20056;-65
2022/07/20 05:29:57;;;;;;;32.92;22.60;;;;;;;21.69;82.36;101287.84;5052021;28;20024;-66
2022/07/20 05:32:23;;;;;;;31.75;22.55;;;;;;;21.73;82.77;101304.75;5052661;28;20531;-65
2022/07/20 05:34:48;;;;;;;34.47;22.58;;;;;;;21.76;81.99;101308.22;5052046;28;20426;-65
2022/07/20 05:37:13;;;;;;;33.63;22.40;;;;;;;21.79;81.21;101291.09;5051844;28;20353;-65
2022/07/20 05:39:39;;;;;;;34.53;22.88;;;;;;;21.84;80.18;101310.63;5052076;28;20021;-65
2022/07/20 05:42:04;;;;;;;33.28;21.98;;;;;;;21.88;79.60;101314.09;5051728;28;20025;-66
2022/07/20 05:44:29;;;;;;;32.30;21.77;;;;;;;21.96;79.41;101317.41;5052117;28;20025;-64
2022/07/20 05:46:55;;;;;;;31.00;22.02;;;;;;;22.02;78.48;101329.72;5051397;28;20494;-65
2022/07/20 05:49:20;;;;;;;34.30;22.77;;;;;;;22.10;78.65;101346.50;5051397;28;20118;-65
2022/07/20 05:51:45;;;;;;;32.15;21.63;;;;;;;22.22;78.53;101339.78;5052088;28;20025;-63
2022/07/20 05:54:11;;;;;;;31.23;21.83;;;;;;;22.33;77.02;101334.94;5051562;28;20079;-64
2022/07/20 05:56:36;;;;;;;31.67;20.13;;;;;;;22.45;76.76;101342.56;5051193;28;20058;-65
2022/07/20 05:59:01;;;;;;;29.48;19.35;;;;;;;22.52;74.17;101355.78;5051477;28;20434;-65
2022/07/20 06:01:27;;;;;;;29.20;18.75;;;;;;;22.56;74.28;101361.00;5051547;28;20025;-67
2022/07/20 06:03:52;;;;;;;28.92;18.90;;;;;;;22.53;74.46;101350.34;5051652;28;20025;-67
2022/07/20 06:06:17;;;;;;;33.50;18.85;;;;;;;22.57;73.24;101376.22;5050961;28;20090;-67
2022/07/20 06:08:43;;;;;;;29.85;19.15;;;;;;;22.58;73.17;101375.28;5051359;28;20040;-66
2022/07/20 06:11:08;;;;;;;29.45;18.42;;;;;;;22.64;74.18;101379.56;5051250;28;20124;-65
2022/07/20 06:13:34;;;;;;;29.45;18.55;;;;;;;22.66;72.96;101376.81;5051839;28;20111;-64
2022/07/20 06:15:59;;;;;;;30.23;18.13;;;;;;;22.75;72.96;101374.66;5050811;28;20071;-66
2022/07/20 06:18:24;;;;;;;30.15;19.08;;;;;;;22.80;72.88;101390.63;5050944;28;20036;-65
2022/07/20 06:20:50;;;;;;;28.88;18.23;;;;;;;22.88;72.06;101398.44;5051612;28;20087;-66
2022/07/20 06:23:15;;;;;;;30.40;18.13;;;;;;;22.80;71.72;101404.09;5051158;28;20021;-65
2022/07/20 06:25:40;;;;;;;29.00;17.42;;;;;;;22.74;73.14;101413.28;5050650;28;20505;-67
2022/07/20 06:28:07;;;;;;;27.20;17.25;;;;;;;22.73;72.82;101429.53;5049249;28;20031;-65
2022/07/20 06:30:32;;;;;;;28.48;17.48;;;;;;;22.80;72.54;101428.34;5046397;28;20029;-64
2022/07/20 06:32:58;;;;;;;30.38;17.23;;;;;;;22.87;71.78;101427.19;5049088;28;20374;-66
2022/07/20 06:35:23;;;;;;;29.33;17.52;;;;;;;22.97;71.83;101434.00;5048709;28;20068;-66
2022/07/20 06:37:48;;;;;;;29.48;17.45;;;;;;;23.11;72.09;101455.06;5048648;28;20029;-65
2022/07/20 06:40:14;;;;;;;29.30;17.70;;;;;;;23.11;71.78;101459.56;5049088;28;20057;-64
2022/07/20 06:42:39;;;;;;;28.77;17.50;;;;;;;23.04;69.91;101471.47;5048833;28;20102;-67
2022/07/20 06:45:05;;;;;;;27.48;17.13;;;;;;;22.96;70.52;101461.91;5048804;28;20024;-66
2022/07/20 06:47:31;;;;;;;26.77;17.13;;;;;;;22.94;70.41;101474.53;5048892;28;20032;-64
2022/07/20 06:49:56;;;;;;;29.10;17.67;;;;;;;22.74;73.69;101475.28;5047970;28;20052;-65
2022/07/20 06:52:21;;;;;;;29.80;17.65;;;;;;;22.55;75.85;101479.59;5048038;28;20357;-66
2022/07/20 06:54:47;;;;;;;28.52;17.40;;;;;;;22.34;76.70;101483.91;5045395;28;20068;-68
2022/07/20 06:57:13;;;;;;;29.05;17.90;;;;;;;22.40;75.76;101483.72;5044834;28;20111;-67
2022/07/20 06:59:39;;;;;;;29.15;17.40;;;;;;;22.49;74.99;101486.06;5046382;28;20021;-68
2022/07/20 07:02:05;;;;;;;28.45;17.38;;;;;;;22.59;74.47;101495.56;5043107;28;20028;-66
2022/07/20 07:04:30;;;;;;;29.55;17.27;;;;;;;22.69;74.58;101492.53;5045693;28;20456;-65
2022/07/20 07:06:58;;;;;;;28.40;16.48;;;;;;;22.80;72.61;101483.16;5045273;28;20033;-67
2022/07/20 07:09:23;;;;;;;29.08;17.02;;;;;;;22.87;72.37;101499.09;5048962;28;20090;-65
2022/07/20 07:11:48;;;;;;;27.48;17.27;;;;;;;22.91;71.23;101490.84;5043357;28;20418;-65
2022/07/20 07:14:14;;;;;;;28.15;16.90;;;;;;;23.09;70.66;101482.97;5043300;28;20036;-64
2022/07/20 07:16:39;;;;;;;30.83;17.58;;;;;;;23.25;70.39;101470.69;5044969;28;20021;-67
2022/07/20 07:19:04;;;;;;;29.70;17.17;;;;;;;23.43;68.62;101471.81;5044343;28;20033;-66
2022/07/20 07:21:30;;;;;;;29.20;16.23;;;;;;;23.50;69.07;101489.50;5044621;28;20025;-65
2022/07/20 07:23:55;;;;;;;28.27;16.70;;;;;;;23.68;66.48;101490.59;5045366;28;20021;-64
2022/07/20 07:26:21;;;;;;;27.77;15.75;;;;;;;23.77;66.05;101486.63;5045195;28;20052;-66
2022/07/20 07:28:47;;;;;;;28.42;15.77;;;;;;;23.99;66.65;101507.38;5042873;28;20392;-66
2022/07/20 07:31:15;;;;;;;26.77;15.77;;;;;;;24.06;66.06;101513.38;5040379;28;20021;-68
2022/07/20 07:33:40;;;;;;;30.13;16.00;;;;;;;24.02;64.73;101513.50;5049852;28;20021;-66
2022/07/20 07:36:05;;;;;;;28.77;15.65;;;;;;;23.99;64.97;101518.19;5051364;28;20063;-65
2022/07/20 07:38:31;;;;;;;28.10;15.35;;;;;;;23.89;65.25;101539.25;5050964;28;20494;-66
2022/07/20 07:40:57;;;;;;;27.63;16.05;;;;;;;23.86;66.07;101539.38;5051170;28;20040;-64
2022/07/20 07:43:23;;;;;;;30.17;16.13;;;;;;;23.93;66.72;101532.81;5050696;28;20029;-64
2022/07/20 07:45:48;;;;;;;27.17;15.40;;;;;;;24.15;65.54;101548.13;5041847;28;20024;-65
2022/07/20 07:48:14;;;;;;;27.67;15.32;;;;;;;24.16;63.98;101553.47;5048839;28;20120;-65
2022/07/20 07:50:41;;;;;;;27.20;15.40;;;;;;;24.25;64.38;101560.28;5054629;28;20170;-65
2022/07/20 07:53:07;;;;;;;29.00;15.57;;;;;;;24.33;64.62;101566.25;5053929;28;20118;-65
2022/07/20 07:55:34;;;;;;;28.58;15.18;;;;;;;24.46;64.85;101560.31;5053171;28;20507;-65
2022/07/20 07:57:59;;;;;;;27.65;15.27;;;;;;;24.57;62.56;101565.25;5054865;28;20154;-65
2022/07/20 08:00:25;;;;;;;28.95;15.45;;;;;;;24.62;61.62;101558.75;5054587;28;20104;-65
2022/07/20 08:02:50;;;;;;;28.27;14.63;;;;;;;24.62;60.42;101549.78;5055002;28;20599;-65
2022/07/20 08:05:16;;;;;;;25.55;14.23;;;;;;;24.67;59.41;101545.06;5054266;28;20021;-64
2022/07/20 08:07:41;;;;;;;28.77;14.77;;;;;;;24.77;61.05;101532.88;5054190;28;20075;-65
2022/07/20 08:10:08;;;;;;;27.05;14.43;;;;;;;25.04;60.33;101519.94;5054310;28;20033;-66
2022/07/20 08:12:34;;;;;;;24.73;13.27;;;;;;;25.32;60.15;101524.09;5054758;28;20113;-66
2022/07/20 08:14:59;;;;;;;25.60;13.70;;;;;;;25.66;58.52;101510.75;5054239;28;20434;-68
2022/07/20 08:17:24;;;;;;;27.35;13.65;;;;;;;25.91;54.67;101507.75;5052595;28;20096;-66
2022/07/20 08:19:50;;;;;;;25.48;13.55;;;;;;;26.21;54.90;101505.38;5053505;28;20053;-65
2022/07/20 08:22:15;;;;;;;25.85;13.73;;;;;;;26.50;57.09;101513.78;5054070;28;20049;-65
2022/07/20 08:24:40;;;;;;;26.35;13.80;;;;;;;26.52;52.65;101513.72;5054058;28;20029;-65
2022/07/20 08:27:05;;;;;;;27.05;13.38;;;;;;;26.15;52.97;101515.63;5054186;28;20071;-66
2022/07/20 08:29:31;;;;;;;24.48;13.60;;;;;;;25.82;53.63;101508.19;5053924;28;20404;-66
2022/07/20 08:31:56;;;;;;;25.83;13.57;;;;;;;25.65;53.84;101526.16;5053722;28;20135;-65
2022/07/20 08:34:22;;;;;;;25.90;13.93;;;;;;;25.71;55.21;101536.66;5053422;28;20216;-66
2022/07/20 08:36:47;;;;;;;25.60;13.88;;;;;;;25.81;52.01;101537.09;5053976;28;20021;-67
2022/07/20 08:39:12;;;;;;;25.67;13.75;;;;;;;25.85;53.84;101545.97;5049177;28;20028;-70
2022/07/20 08:41:39;;;;;;;26.10;13.15;;;;;;;26.15;54.15;101551.69;5043887;28;20025;-65
2022/07/20 08:44:04;;;;;;;25.33;13.30;;;;;;;26.50;51.96;101556.28;5049177;28;20112;-65
2022/07/20 08:46:31;;;;;;;26.15;14.15;;;;;;;26.55;51.33;101562.38;5047326;28;20021;-65
2022/07/20 08:48:56;;;;;;;26.40;13.00;;;;;;;26.78;50.86;101540.38;5050844;28;20056;-67
2022/07/20 08:51:21;;;;;;;25.13;13.32;;;;;;;27.14;50.36;101541.19;5053776;28;20028;-65
2022/07/20 08:53:49;;;;;;;27.10;13.38;;;;;;;27.25;47.46;101538.75;5052855;28;20025;-66
2022/07/20 08:56:14;;;;;;;27.67;13.77;;;;;;;27.14;49.51;101547.50;5052282;28;20572;-66
2022/07/20 08:58:41;;;;;;;25.00;13.30;;;;;;;27.01;48.57;101545.53;5053916;28;20540;-65
2022/07/20 09:01:06;;;;;;;25.02;13.23;;;;;;;27.00;48.10;101533.81;5052777;28;20452;-65
2022/07/20 09:03:32;;;;;;;25.67;13.55;;;;;;;26.88;50.62;101512.75;5085066;28;20025;-65
2022/07/20 09:06:03;;;;;;;24.77;13.25;;;;;;;26.81;50.05;101505.91;5053568;28;20032;-64
2022/07/20 09:08:28;;;;;;;25.08;13.38;;;;;;;26.74;49.79;101521.66;5048415;28;20033;-65
2022/07/20 09:10:54;;;;;;;25.33;13.45;;;;;;;26.59;51.14;101536.84;5052861;28;20385;-65
2022/07/20 09:13:21;;;;;;;24.60;14.00;;;;;;;26.51;49.82;101544.50;5050673;28;20056;-64
2022/07/20 09:15:48;;;;;;;25.90;13.77;;;;;;;26.54;50.89;101555.19;5053217;28;20029;-64
2022/07/20 09:18:19;;;;;;;26.40;13.07;;;;;;;27.17;50.79;101561.84;5052842;28;20032;-65
2022/07/20 09:20:49;;;;;;;27.33;13.77;;;;;;;27.47;49.47;101603.63;5049314;28;20476;-65
2022/07/20 09:23:17;;;;;;;24.42;13.18;;;;;;;27.18;49.26;101613.31;5052459;28;20032;-65
2022/07/20 09:26:05;;;;;;;24.92;13.07;;;;;;;26.70;49.84;101628.50;5049523;28;20091;-65
2022/07/20 09:28:41;;;;;;;24.83;13.45;;;;;;;26.41;50.51;101637.09;5051909;28;20025;-64
2022/07/20 09:31:14;;;;;;;25.88;13.00;;;;;;;26.39;52.42;101647.16;5053187;28;20055;-64
2022/07/20 09:33:46;;;;;;;24.95;12.93;;;;;;;26.71;50.36;101620.28;5052069;28;20033;-65
2022/07/20 09:36:12;;;;;;;26.67;13.57;;;;;;;26.99;49.97;101629.69;5053013;28;20043;-65
2022/07/20 09:38:40;;;;;;;27.50;13.55;;;;;;;27.37;50.70;101607.78;5052584;28;20029;-65
2022/07/20 09:41:23;;;;;;;25.40;13.50;;;;;;;27.61;48.83;101621.88;5052939;28;20021;-65
2022/07/20 09:43:48;;;;;;;26.55;13.27;;;;;;;27.92;48.14;101601.13;5050466;28;20056;-65
2022/07/20 09:46:16;;;;;;;23.70;12.73;;;;;;;28.51;47.41;101595.94;5053568;28;20064;-65
2022/07/20 09:48:47;;;;;;;25.70;13.32;;;;;;;28.67;45.10;101600.47;5053305;28;20045;-65
2022/07/20 09:51:20;;;;;;;24.38;11.95;;;;;;;28.85;46.13;101602.06;5053435;28;20076;-65
2022/07/20 09:53:46;;;;;;;24.67;11.27;;;;;;;29.18;44.26;101594.63;5049886;28;20029;-65
2022/07/20 09:56:18;;;;;;;26.33;12.43;;;;;;;29.03;42.89;101604.63;5053572;28;20064;-65
2022/07/20 09:58:50;;;;;;;25.10;12.32;;;;;;;28.94;43.89;101581.59;5047224;28;20033;-65
2022/07/20 10:01:22;;;;;;;24.20;12.10;;;;;;;29.26;42.72;101586.91;5050893;28;20029;-65
2022/07/20 10:03:49;;;;;;;24.50;12.63;;;;;;;30.18;41.03;101590.94;5049329;28;20027;-65
2022/07/20 10:06:16;;;;;;;25.08;11.85;;;;;;;30.57;41.37;101589.25;5051435;28;20545;-65
2022/07/20 10:08:42;;;;;;;24.67;12.05;;;;;;;31.00;39.49;101599.06;5050269;28;20086;-65
2022/07/20 10:11:08;;;;;;;21.88;10.60;;;;;;;30.33;39.95;101615.44;5051242;28;20162;-65
2022/07/20 10:13:34;;;;;;;24.25;10.93;;;;;;;30.26;39.26;101617.69;5050594;28;20818;-65
2022/07/20 10:16:04;;;;;;;22.33;10.75;;;;;;;30.43;38.55;101632.94;5050817;28;20024;-65
2022/07/20 10:18:29;;;;;;;23.40;10.80;;;;;;;30.69;38.92;101622.13;5050474;28;20029;-65
2022/07/20 10:20:55;;;;;;;23.50;10.90;;;;;;;29.93;38.82;101623.53;5050273;28;20021;-65
2022/07/20 10:23:24;;;;;;;22.45;10.07;;;;;;;29.15;41.26;101609.28;5050476;28;20464;-65
2022/07/20 10:25:49;;;;;;;21.27;10.70;;;;;;;29.61;40.68;101596.53;5049948;28;20025;-65
2022/07/20 10:28:34;;;;;;;24.05;10.75;;;;;;;30.43;39.05;101594.78;5050002;28;20029;-65
2022/07/20 10:31:16;;;;;;;22.55;10.65;;;;;;;29.67;39.57;101607.88;5049275;28;20082;-65
2022/07/20 10:33:42;;;;;;;21.75;10.45;;;;;;;29.40;39.95;101599.63;5050898;28;20025;-64
2022/07/20 10:38:55;;;;;;;22.77;9.90;;;;;;;32.53;34.52;101598.81;5049772;28;20039;-65
2022/07/20 10:41:33;;;;;;;20.75;9.45;;;;;;;31.91;35.00;101599.88;5051085;28;20041;-65
2022/07/20 10:44:19;;;;;;;23.52;10.02;;;;;;;30.81;37.66;101593.13;5049915;28;20035;-65
2022/07/20 10:46:46;;;;;;;22.45;9.90;;;;;;;30.90;38.43;101595.19;5052497;28;20041;-65
2022/07/20 10:49:11;;;;;;;21.25;9.35;;;;;;;31.63;36.41;101597.31;5052336;28;20045;-65
2022/07/20 10:51:37;;;;;;;20.13;8.75;;;;;;;32.29;33.82;101594.25;5052710;28;20029;-65
2022/07/20 10:54:30;;;;;;;21.33;8.75;;;;;;;33.24;33.24;101596.06;5052382;28;20033;-65
2022/07/20 10:56:57;;;;;;;22.73;10.05;;;;;;;33.87;31.52;101576.38;5045417;28;20120;-65
2022/07/20 10:59:22;;;;;;;22.08;9.13;;;;;;;33.79;31.95;101606.31;5051169;28;20657;-65
2022/07/20 11:01:48;;;;;;;21.63;8.75;;;;;;;33.89;32.77;101607.28;5050458;28;20108;-65
2022/07/20 11:04:15;;;;;;;22.42;9.27;;;;;;;34.60;31.46;101611.44;5050662;28;20049;-65
2022/07/20 11:06:41;;;;;;;21.90;9.15;;;;;;;35.11;31.25;101609.78;5048855;28;20082;-65
2022/07/20 11:09:06;;;;;;;20.52;8.77;;;;;;;34.94;30.20;101611.25;5050522;28;20029;-65
2022/07/20 11:11:34;;;;;;;22.17;9.38;;;;;;;34.90;30.06;101608.78;5050899;28;20024;-65
2022/07/20 11:14:03;;;;;;;21.15;9.20;;;;;;;35.73;29.48;101610.69;5048758;28;20372;-65
2022/07/20 11:16:28;;;;;;;21.88;8.98;;;;;;;36.16;29.24;101600.38;5048746;28;20029;-65